sensor_id;sensor_type;location;lat;lon;timestamp;P1;durP1;ratioP1;P2;durP2;ratioP2
4980;SDS011;2507;50.392;7.482;2022-12-07T00:00:55;12.90;;;9.03;;
4980;SDS011;2507;50.392;7.482;2022-12-07T00:03:32;10.23;;;9.23;;
4980;SDS011;2507;50.392;7.482;2022-12-07T00:05:58;11.27;;;8.93;;
4980;SDS011;2507;50.392;7.482;2022-12-07T00:08:23;10.70;;;9.20;;
4980;SDS011;2507;50.392;7.482;2022-12-07T00:10:49;13.93;;;9.63;;
4980;SDS011;2507;50.392;7.482;2022-12-07T00:13:14;11.07;;;9.43;;
4980;SDS011;2507;50.392;7.482;2022-12-07T00:15:39;12.90;;;10.00;;
4980;SDS011;2507;50.392;7.482;2022-12-07T00:18:04;10.60;;;9.33;;
4980;SDS011;2507;50.392;7.482;2022-12-07T00:20:30;11.80;;;10.20;;
4980;SDS011;2507;50.392;7.482;2022-12-07T00:22:55;13.67;;;10.80;;
4980;SDS011;2507;50.392;7.482;2022-12-07T00:25:21;11.43;;;9.50;;
4980;SDS011;2507;50.392;7.482;2022-12-07T00:27:46;11.00;;;9.37;;
4980;SDS011;2507;50.392;7.482;2022-12-07T00:30:12;12.93;;;9.87;;
4980;SDS011;2507;50.392;7.482;2022-12-07T00:32:37;10.23;;;9.00;;
4980;SDS011;2507;50.392;7.482;2022-12-07T00:35:03;9.80;;;8.80;;
4980;SDS011;2507;50.392;7.482;2022-12-07T00:37:28;9.73;;;8.50;;
4980;SDS011;2507;50.392;7.482;2022-12-07T00:39:53;11.63;;;9.97;;
4980;SDS011;2507;50.392;7.482;2022-12-07T00:42:19;14.67;;;10.00;;
4980;SDS011;2507;50.392;7.482;2022-12-07T00:44:44;10.73;;;9.67;;
4980;SDS011;2507;50.392;7.482;2022-12-07T00:47:09;12.13;;;9.23;;
4980;SDS011;2507;50.392;7.482;2022-12-07T00:49:35;10.37;;;9.27;;
4980;SDS011;2507;50.392;7.482;2022-12-07T00:52:00;11.10;;;9.30;;
4980;SDS011;2507;50.392;7.482;2022-12-07T00:54:25;12.57;;;10.37;;
4980;SDS011;2507;50.392;7.482;2022-12-07T00:56:51;13.93;;;10.73;;
4980;SDS011;2507;50.392;7.482;2022-12-07T00:59:16;11.07;;;9.90;;
4980;SDS011;2507;50.392;7.482;2022-12-07T01:01:41;13.00;;;10.70;;
4980;SDS011;2507;50.392;7.482;2022-12-07T01:04:07;12.40;;;10.60;;
4980;SDS011;2507;50.392;7.482;2022-12-07T01:06:33;14.03;;;10.53;;
4980;SDS011;2507;50.392;7.482;2022-12-07T01:08:59;12.37;;;9.67;;
4980;SDS011;2507;50.392;7.482;2022-12-07T01:11:26;11.93;;;10.17;;
4980;SDS011;2507;50.392;7.482;2022-12-07T01:13:54;12.97;;;10.73;;
4980;SDS011;2507;50.392;7.482;2022-12-07T01:16:22;10.90;;;9.30;;
4980;SDS011;2507;50.392;7.482;2022-12-07T01:18:49;10.73;;;9.63;;
4980;SDS011;2507;50.392;7.482;2022-12-07T01:21:18;13.20;;;10.50;;
4980;SDS011;2507;50.392;7.482;2022-12-07T01:23:46;12.50;;;9.90;;
4980;SDS011;2507;50.392;7.482;2022-12-07T01:26:13;12.10;;;10.50;;
4980;SDS011;2507;50.392;7.482;2022-12-07T01:28:40;13.47;;;10.10;;
4980;SDS011;2507;50.392;7.482;2022-12-07T01:31:10;13.57;;;10.57;;
4980;SDS011;2507;50.392;7.482;2022-12-07T01:33:39;12.00;;;10.40;;
4980;SDS011;2507;50.392;7.482;2022-12-07T01:36:16;13.60;;;10.43;;
4980;SDS011;2507;50.392;7.482;2022-12-07T01:38:44;10.90;;;9.80;;
4980;SDS011;2507;50.392;7.482;2022-12-07T01:41:11;11.90;;;10.27;;
4980;SDS011;2507;50.392;7.482;2022-12-07T01:44:06;13.83;;;10.80;;
4980;SDS011;2507;50.392;7.482;2022-12-07T01:46:31;14.30;;;10.70;;
4980;SDS011;2507;50.392;7.482;2022-12-07T01:48:57;11.70;;;10.10;;
4980;SDS011;2507;50.392;7.482;2022-12-07T01:51:22;11.03;;;10.03;;
4980;SDS011;2507;50.392;7.482;2022-12-07T01:53:47;13.03;;;11.27;;
4980;SDS011;2507;50.392;7.482;2022-12-07T01:56:15;13.60;;;10.70;;
4980;SDS011;2507;50.392;7.482;2022-12-07T01:58:46;12.83;;;10.03;;
4980;SDS011;2507;50.392;7.482;2022-12-07T02:01:13;12.83;;;10.17;;
4980;SDS011;2507;50.392;7.482;2022-12-07T02:03:42;13.03;;;11.10;;
4980;SDS011;2507;50.392;7.482;2022-12-07T02:06:09;12.97;;;10.47;;
4980;SDS011;2507;50.392;7.482;2022-12-07T02:08:37;12.83;;;10.83;;
4980;SDS011;2507;50.392;7.482;2022-12-07T02:11:03;13.80;;;11.20;;
4980;SDS011;2507;50.392;7.482;2022-12-07T02:13:31;11.77;;;10.50;;
4980;SDS011;2507;50.392;7.482;2022-12-07T02:21:40;13.23;;;10.43;;
4980;SDS011;2507;50.392;7.482;2022-12-07T02:26:44;11.93;;;10.73;;
4980;SDS011;2507;50.392;7.482;2022-12-07T02:29:32;13.10;;;10.80;;
4980;SDS011;2507;50.392;7.482;2022-12-07T02:32:17;14.10;;;11.10;;
4980;SDS011;2507;50.392;7.482;2022-12-07T02:34:50;12.33;;;10.63;;
4980;SDS011;2507;50.392;7.482;2022-12-07T02:37:27;14.17;;;11.33;;
4980;SDS011;2507;50.392;7.482;2022-12-07T02:39:58;14.77;;;11.20;;
4980;SDS011;2507;50.392;7.482;2022-12-07T02:42:40;14.87;;;11.10;;
4980;SDS011;2507;50.392;7.482;2022-12-07T02:45:13;14.67;;;12.90;;
4980;SDS011;2507;50.392;7.482;2022-12-07T02:47:40;13.50;;;11.33;;
4980;SDS011;2507;50.392;7.482;2022-12-07T02:50:08;13.90;;;11.67;;
4980;SDS011;2507;50.392;7.482;2022-12-07T02:52:34;13.03;;;11.73;;
4980;SDS011;2507;50.392;7.482;2022-12-07T02:54:59;16.00;;;11.80;;
4980;SDS011;2507;50.392;7.482;2022-12-07T03:00:09;13.60;;;11.67;;
4980;SDS011;2507;50.392;7.482;2022-12-07T03:05:18;14.53;;;12.53;;
4980;SDS011;2507;50.392;7.482;2022-12-07T03:08:06;15.47;;;12.80;;
4980;SDS011;2507;50.392;7.482;2022-12-07T03:11:00;15.57;;;12.23;;
4980;SDS011;2507;50.392;7.482;2022-12-07T03:21:31;16.20;;;13.10;;
4980;SDS011;2507;50.392;7.482;2022-12-07T03:24:03;18.63;;;13.97;;
4980;SDS011;2507;50.392;7.482;2022-12-07T03:26:34;15.23;;;12.40;;
4980;SDS011;2507;50.392;7.482;2022-12-07T03:29:09;16.30;;;11.90;;
4980;SDS011;2507;50.392;7.482;2022-12-07T03:31:45;13.13;;;11.73;;
4980;SDS011;2507;50.392;7.482;2022-12-07T03:36:46;16.80;;;13.30;;
4980;SDS011;2507;50.392;7.482;2022-12-07T03:39:31;14.50;;;12.10;;
4980;SDS011;2507;50.392;7.482;2022-12-07T03:42:02;15.93;;;12.93;;
4980;SDS011;2507;50.392;7.482;2022-12-07T03:44:30;14.63;;;12.20;;
4980;SDS011;2507;50.392;7.482;2022-12-07T03:49:29;15.73;;;12.07;;
4980;SDS011;2507;50.392;7.482;2022-12-07T03:54:53;16.10;;;13.37;;
4980;SDS011;2507;50.392;7.482;2022-12-07T03:57:24;14.37;;;12.50;;
4980;SDS011;2507;50.392;7.482;2022-12-07T03:59:51;13.60;;;11.50;;
4980;SDS011;2507;50.392;7.482;2022-12-07T04:02:20;14.20;;;12.30;;
4980;SDS011;2507;50.392;7.482;2022-12-07T04:04:45;15.97;;;12.30;;
4980;SDS011;2507;50.392;7.482;2022-12-07T04:07:10;15.07;;;12.53;;
4980;SDS011;2507;50.392;7.482;2022-12-07T04:09:36;13.70;;;11.97;;
4980;SDS011;2507;50.392;7.482;2022-12-07T04:12:01;16.30;;;13.80;;
4980;SDS011;2507;50.392;7.482;2022-12-07T04:14:27;16.37;;;11.80;;
4980;SDS011;2507;50.392;7.482;2022-12-07T04:16:56;11.50;;;10.30;;
4980;SDS011;2507;50.392;7.482;2022-12-07T04:19:27;11.80;;;10.50;;
4980;SDS011;2507;50.392;7.482;2022-12-07T04:21:57;10.87;;;9.77;;
4980;SDS011;2507;50.392;7.482;2022-12-07T04:24:24;10.90;;;9.17;;
4980;SDS011;2507;50.392;7.482;2022-12-07T04:26:49;9.63;;;8.63;;
4980;SDS011;2507;50.392;7.482;2022-12-07T04:29:15;10.80;;;8.50;;
4980;SDS011;2507;50.392;7.482;2022-12-07T04:31:41;9.57;;;8.60;;
4980;SDS011;2507;50.392;7.482;2022-12-07T04:34:07;9.40;;;8.50;;
4980;SDS011;2507;50.392;7.482;2022-12-07T04:36:34;8.37;;;7.67;;
4980;SDS011;2507;50.392;7.482;2022-12-07T04:39:00;10.80;;;8.50;;
4980;SDS011;2507;50.392;7.482;2022-12-07T04:41:26;8.70;;;7.80;;
4980;SDS011;2507;50.392;7.482;2022-12-07T04:43:54;10.20;;;8.73;;
4980;SDS011;2507;50.392;7.482;2022-12-07T04:46:21;8.83;;;7.93;;
4980;SDS011;2507;50.392;7.482;2022-12-07T04:48:48;8.07;;;7.27;;
4980;SDS011;2507;50.392;7.482;2022-12-07T04:51:15;7.63;;;7.03;;
4980;SDS011;2507;50.392;7.482;2022-12-07T04:53:44;7.83;;;7.17;;
4980;SDS011;2507;50.392;7.482;2022-12-07T04:56:09;7.57;;;6.87;;
4980;SDS011;2507;50.392;7.482;2022-12-07T04:58:35;8.63;;;7.80;;
4980;SDS011;2507;50.392;7.482;2022-12-07T05:01:00;8.30;;;7.50;;
4980;SDS011;2507;50.392;7.482;2022-12-07T05:03:25;7.20;;;6.50;;
4980;SDS011;2507;50.392;7.482;2022-12-07T05:05:50;8.17;;;7.37;;
4980;SDS011;2507;50.392;7.482;2022-12-07T05:08:16;9.93;;;8.43;;
4980;SDS011;2507;50.392;7.482;2022-12-07T05:10:41;7.33;;;6.73;;
4980;SDS011;2507;50.392;7.482;2022-12-07T05:13:06;7.37;;;6.77;;
4980;SDS011;2507;50.392;7.482;2022-12-07T05:15:31;7.40;;;6.70;;
4980;SDS011;2507;50.392;7.482;2022-12-07T05:17:57;7.53;;;6.73;;
4980;SDS011;2507;50.392;7.482;2022-12-07T05:20:22;8.10;;;6.97;;
4980;SDS011;2507;50.392;7.482;2022-12-07T05:22:47;8.33;;;7.60;;
4980;SDS011;2507;50.392;7.482;2022-12-07T05:25:12;8.40;;;7.60;;
4980;SDS011;2507;50.392;7.482;2022-12-07T05:27:38;7.27;;;6.33;;
4980;SDS011;2507;50.392;7.482;2022-12-07T05:30:04;7.83;;;6.97;;
4980;SDS011;2507;50.392;7.482;2022-12-07T05:32:31;7.70;;;6.93;;
4980;SDS011;2507;50.392;7.482;2022-12-07T05:34:56;7.30;;;6.60;;
4980;SDS011;2507;50.392;7.482;2022-12-07T05:37:22;7.60;;;6.93;;
4980;SDS011;2507;50.392;7.482;2022-12-07T05:39:47;7.83;;;7.13;;
4980;SDS011;2507;50.392;7.482;2022-12-07T05:42:12;8.93;;;8.03;;
4980;SDS011;2507;50.392;7.482;2022-12-07T05:44:41;8.07;;;7.40;;
4980;SDS011;2507;50.392;7.482;2022-12-07T05:47:09;7.37;;;6.77;;
4980;SDS011;2507;50.392;7.482;2022-12-07T05:49:34;9.00;;;7.17;;
4980;SDS011;2507;50.392;7.482;2022-12-07T05:52:00;8.43;;;7.47;;
4980;SDS011;2507;50.392;7.482;2022-12-07T05:54:25;9.07;;;7.80;;
4980;SDS011;2507;50.392;7.482;2022-12-07T05:56:51;9.70;;;8.70;;
4980;SDS011;2507;50.392;7.482;2022-12-07T05:59:16;8.47;;;7.60;;
4980;SDS011;2507;50.392;7.482;2022-12-07T06:01:48;8.40;;;7.60;;
4980;SDS011;2507;50.392;7.482;2022-12-07T06:04:29;8.73;;;7.87;;
4980;SDS011;2507;50.392;7.482;2022-12-07T06:06:56;8.13;;;7.33;;
4980;SDS011;2507;50.392;7.482;2022-12-07T06:09:22;7.93;;;7.20;;
4980;SDS011;2507;50.392;7.482;2022-12-07T06:11:49;9.80;;;7.13;;
4980;SDS011;2507;50.392;7.482;2022-12-07T06:14:34;10.43;;;8.27;;
4980;SDS011;2507;50.392;7.482;2022-12-07T06:16:59;9.30;;;8.30;;
4980;SDS011;2507;50.392;7.482;2022-12-07T06:19:25;9.20;;;8.20;;
4980;SDS011;2507;50.392;7.482;2022-12-07T06:21:50;8.73;;;7.87;;
4980;SDS011;2507;50.392;7.482;2022-12-07T06:24:16;10.50;;;8.60;;
4980;SDS011;2507;50.392;7.482;2022-12-07T06:26:42;9.80;;;8.50;;
4980;SDS011;2507;50.392;7.482;2022-12-07T06:29:08;8.40;;;7.50;;
4980;SDS011;2507;50.392;7.482;2022-12-07T06:31:33;8.83;;;7.03;;
4980;SDS011;2507;50.392;7.482;2022-12-07T06:34:00;10.17;;;8.60;;
4980;SDS011;2507;50.392;7.482;2022-12-07T06:36:27;8.60;;;7.80;;
4980;SDS011;2507;50.392;7.482;2022-12-07T06:38:53;11.17;;;8.83;;
4980;SDS011;2507;50.392;7.482;2022-12-07T06:41:18;9.63;;;7.87;;
4980;SDS011;2507;50.392;7.482;2022-12-07T06:43:43;8.47;;;7.13;;
4980;SDS011;2507;50.392;7.482;2022-12-07T06:46:09;8.20;;;7.50;;
4980;SDS011;2507;50.392;7.482;2022-12-07T06:48:34;8.30;;;7.50;;
4980;SDS011;2507;50.392;7.482;2022-12-07T06:50:59;7.60;;;7.00;;
4980;SDS011;2507;50.392;7.482;2022-12-07T06:53:25;8.03;;;7.23;;
4980;SDS011;2507;50.392;7.482;2022-12-07T06:55:50;8.83;;;7.93;;
4980;SDS011;2507;50.392;7.482;2022-12-07T06:58:16;11.20;;;7.40;;
4980;SDS011;2507;50.392;7.482;2022-12-07T07:00:42;9.77;;;7.17;;
4980;SDS011;2507;50.392;7.482;2022-12-07T07:03:08;8.10;;;7.40;;
4980;SDS011;2507;50.392;7.482;2022-12-07T07:05:33;6.93;;;6.27;;
4980;SDS011;2507;50.392;7.482;2022-12-07T07:07:58;7.53;;;6.63;;
4980;SDS011;2507;50.392;7.482;2022-12-07T07:10:24;9.27;;;7.20;;
4980;SDS011;2507;50.392;7.482;2022-12-07T07:12:49;7.53;;;6.80;;
4980;SDS011;2507;50.392;7.482;2022-12-07T07:15:14;6.93;;;6.33;;
4980;SDS011;2507;50.392;7.482;2022-12-07T07:17:40;10.40;;;7.47;;
4980;SDS011;2507;50.392;7.482;2022-12-07T07:20:05;8.70;;;7.50;;
4980;SDS011;2507;50.392;7.482;2022-12-07T07:22:31;6.97;;;6.27;;
4980;SDS011;2507;50.392;7.482;2022-12-07T07:24:56;7.87;;;7.07;;
4980;SDS011;2507;50.392;7.482;2022-12-07T07:27:21;7.87;;;7.00;;
4980;SDS011;2507;50.392;7.482;2022-12-07T07:29:46;8.30;;;7.47;;
4980;SDS011;2507;50.392;7.482;2022-12-07T07:32:12;9.93;;;7.00;;
4980;SDS011;2507;50.392;7.482;2022-12-07T07:34:37;8.17;;;7.37;;
4980;SDS011;2507;50.392;7.482;2022-12-07T07:37:02;17.13;;;7.50;;
4980;SDS011;2507;50.392;7.482;2022-12-07T07:39:28;7.50;;;6.80;;
4980;SDS011;2507;50.392;7.482;2022-12-07T07:41:53;9.40;;;7.93;;
4980;SDS011;2507;50.392;7.482;2022-12-07T07:44:18;9.57;;;8.33;;
4980;SDS011;2507;50.392;7.482;2022-12-07T07:46:44;7.97;;;7.27;;
4980;SDS011;2507;50.392;7.482;2022-12-07T07:49:09;8.90;;;7.73;;
4980;SDS011;2507;50.392;7.482;2022-12-07T07:51:35;11.40;;;7.70;;
4980;SDS011;2507;50.392;7.482;2022-12-07T07:56:28;7.97;;;6.07;;
4980;SDS011;2507;50.392;7.482;2022-12-07T07:58:54;9.00;;;6.80;;
4980;SDS011;2507;50.392;7.482;2022-12-07T08:01:19;6.87;;;6.27;;
4980;SDS011;2507;50.392;7.482;2022-12-07T08:03:45;9.97;;;7.67;;
4980;SDS011;2507;50.392;7.482;2022-12-07T08:06:11;9.07;;;7.70;;
4980;SDS011;2507;50.392;7.482;2022-12-07T08:08:37;11.10;;;6.90;;
4980;SDS011;2507;50.392;7.482;2022-12-07T08:11:04;7.50;;;6.57;;
4980;SDS011;2507;50.392;7.482;2022-12-07T08:13:30;8.00;;;6.50;;
4980;SDS011;2507;50.392;7.482;2022-12-07T08:15:56;6.90;;;6.20;;
4980;SDS011;2507;50.392;7.482;2022-12-07T08:18:21;9.53;;;7.87;;
4980;SDS011;2507;50.392;7.482;2022-12-07T08:20:46;9.30;;;7.20;;
4980;SDS011;2507;50.392;7.482;2022-12-07T08:23:11;9.50;;;7.77;;
4980;SDS011;2507;50.392;7.482;2022-12-07T08:25:37;9.23;;;7.77;;
4980;SDS011;2507;50.392;7.482;2022-12-07T08:28:03;9.97;;;7.37;;
4980;SDS011;2507;50.392;7.482;2022-12-07T08:30:29;8.63;;;7.30;;
4980;SDS011;2507;50.392;7.482;2022-12-07T08:32:55;9.10;;;8.03;;
4980;SDS011;2507;50.392;7.482;2022-12-07T08:35:21;11.10;;;7.67;;
4980;SDS011;2507;50.392;7.482;2022-12-07T08:37:46;11.93;;;7.47;;
4980;SDS011;2507;50.392;7.482;2022-12-07T08:40:12;9.50;;;7.47;;
4980;SDS011;2507;50.392;7.482;2022-12-07T08:42:41;8.77;;;7.87;;
4980;SDS011;2507;50.392;7.482;2022-12-07T08:45:10;11.13;;;7.93;;
4980;SDS011;2507;50.392;7.482;2022-12-07T08:47:37;8.50;;;7.70;;
4980;SDS011;2507;50.392;7.482;2022-12-07T08:50:08;8.80;;;8.00;;
4980;SDS011;2507;50.392;7.482;2022-12-07T08:52:36;7.43;;;6.73;;
4980;SDS011;2507;50.392;7.482;2022-12-07T08:55:02;8.63;;;6.10;;
4980;SDS011;2507;50.392;7.482;2022-12-07T08:57:29;7.70;;;6.80;;
4980;SDS011;2507;50.392;7.482;2022-12-07T08:59:55;8.40;;;5.70;;
4980;SDS011;2507;50.392;7.482;2022-12-07T09:02:21;6.23;;;5.70;;
4980;SDS011;2507;50.392;7.482;2022-12-07T09:04:46;5.53;;;4.97;;
4980;SDS011;2507;50.392;7.482;2022-12-07T09:07:11;6.00;;;5.37;;
4980;SDS011;2507;50.392;7.482;2022-12-07T09:09:37;7.43;;;6.67;;
4980;SDS011;2507;50.392;7.482;2022-12-07T09:12:02;4.83;;;4.53;;
4980;SDS011;2507;50.392;7.482;2022-12-07T09:14:28;21.33;;;14.63;;
4980;SDS011;2507;50.392;7.482;2022-12-07T09:16:53;6.10;;;4.67;;
4980;SDS011;2507;50.392;7.482;2022-12-07T09:19:19;6.07;;;5.03;;
4980;SDS011;2507;50.392;7.482;2022-12-07T09:21:44;7.33;;;6.37;;
4980;SDS011;2507;50.392;7.482;2022-12-07T09:24:11;11.27;;;9.30;;
4980;SDS011;2507;50.392;7.482;2022-12-07T09:26:37;6.67;;;3.80;;
4980;SDS011;2507;50.392;7.482;2022-12-07T09:29:04;4.03;;;3.73;;
4980;SDS011;2507;50.392;7.482;2022-12-07T09:31:29;5.03;;;4.20;;
4980;SDS011;2507;50.392;7.482;2022-12-07T09:33:58;8.90;;;4.80;;
4980;SDS011;2507;50.392;7.482;2022-12-07T09:36:24;6.40;;;3.93;;
4980;SDS011;2507;50.392;7.482;2022-12-07T09:38:50;12.30;;;9.23;;
4980;SDS011;2507;50.392;7.482;2022-12-07T09:41:16;7.10;;;5.30;;
4980;SDS011;2507;50.392;7.482;2022-12-07T09:43:42;4.20;;;3.80;;
4980;SDS011;2507;50.392;7.482;2022-12-07T09:46:08;6.00;;;3.87;;
4980;SDS011;2507;50.392;7.482;2022-12-07T09:48:38;4.27;;;3.97;;
4980;SDS011;2507;50.392;7.482;2022-12-07T09:51:17;4.47;;;4.10;;
4980;SDS011;2507;50.392;7.482;2022-12-07T09:53:45;6.70;;;4.20;;
4980;SDS011;2507;50.392;7.482;2022-12-07T09:56:12;4.60;;;3.70;;
4980;SDS011;2507;50.392;7.482;2022-12-07T09:58:39;3.93;;;3.67;;
4980;SDS011;2507;50.392;7.482;2022-12-07T10:01:09;5.47;;;4.97;;
4980;SDS011;2507;50.392;7.482;2022-12-07T10:03:39;5.77;;;4.73;;
4980;SDS011;2507;50.392;7.482;2022-12-07T10:06:07;5.80;;;4.30;;
4980;SDS011;2507;50.392;7.482;2022-12-07T10:08:32;6.57;;;4.30;;
4980;SDS011;2507;50.392;7.482;2022-12-07T10:10:59;6.20;;;4.47;;
4980;SDS011;2507;50.392;7.482;2022-12-07T10:13:35;7.43;;;4.27;;
4980;SDS011;2507;50.392;7.482;2022-12-07T10:16:05;4.93;;;4.37;;
4980;SDS011;2507;50.392;7.482;2022-12-07T10:21:02;5.00;;;4.33;;
4980;SDS011;2507;50.392;7.482;2022-12-07T10:23:28;6.03;;;3.77;;
4980;SDS011;2507;50.392;7.482;2022-12-07T10:25:53;7.47;;;3.70;;
4980;SDS011;2507;50.392;7.482;2022-12-07T10:28:20;10.27;;;5.87;;
4980;SDS011;2507;50.392;7.482;2022-12-07T10:33:52;7.63;;;5.47;;
4980;SDS011;2507;50.392;7.482;2022-12-07T10:36:34;7.57;;;5.57;;
4980;SDS011;2507;50.392;7.482;2022-12-07T10:39:03;12.87;;;6.50;;
4980;SDS011;2507;50.392;7.482;2022-12-07T10:41:43;7.47;;;3.83;;
4980;SDS011;2507;50.392;7.482;2022-12-07T10:44:22;4.67;;;3.10;;
4980;SDS011;2507;50.392;7.482;2022-12-07T10:46:52;10.73;;;3.60;;
4980;SDS011;2507;50.392;7.482;2022-12-07T11:00:13;9.23;;;3.73;;
4980;SDS011;2507;50.392;7.482;2022-12-07T11:11:13;6.33;;;3.97;;
4980;SDS011;2507;50.392;7.482;2022-12-07T11:13:48;5.50;;;3.23;;
4980;SDS011;2507;50.392;7.482;2022-12-07T11:16:29;5.00;;;3.00;;
4980;SDS011;2507;50.392;7.482;2022-12-07T11:19:16;6.93;;;4.43;;
4980;SDS011;2507;50.392;7.482;2022-12-07T11:21:53;6.80;;;5.30;;
4980;SDS011;2507;50.392;7.482;2022-12-07T11:24:48;7.90;;;3.27;;
4980;SDS011;2507;50.392;7.482;2022-12-07T11:33:29;2.50;;;1.80;;
4980;SDS011;2507;50.392;7.482;2022-12-07T11:39:04;2.80;;;1.97;;
4980;SDS011;2507;50.392;7.482;2022-12-07T11:41:40;4.10;;;1.87;;
4980;SDS011;2507;50.392;7.482;2022-12-07T11:44:22;3.17;;;1.97;;
4980;SDS011;2507;50.392;7.482;2022-12-07T11:46:58;3.07;;;1.63;;
4980;SDS011;2507;50.392;7.482;2022-12-07T11:49:40;3.23;;;2.50;;
4980;SDS011;2507;50.392;7.482;2022-12-07T11:52:20;1.83;;;1.43;;
4980;SDS011;2507;50.392;7.482;2022-12-07T11:54:52;4.50;;;3.00;;
4980;SDS011;2507;50.392;7.482;2022-12-07T11:57:32;3.23;;;1.40;;
4980;SDS011;2507;50.392;7.482;2022-12-07T12:00:05;5.23;;;2.90;;
4980;SDS011;2507;50.392;7.482;2022-12-07T12:02:40;3.20;;;2.90;;
4980;SDS011;2507;50.392;7.482;2022-12-07T12:05:18;5.33;;;3.40;;
4980;SDS011;2507;50.392;7.482;2022-12-07T12:07:46;2.13;;;1.10;;
4980;SDS011;2507;50.392;7.482;2022-12-07T12:10:37;2.43;;;1.10;;
4980;SDS011;2507;50.392;7.482;2022-12-07T12:19:01;2.40;;;1.80;;
4980;SDS011;2507;50.392;7.482;2022-12-07T12:21:36;3.23;;;2.10;;
4980;SDS011;2507;50.392;7.482;2022-12-07T12:24:04;2.60;;;2.40;;
4980;SDS011;2507;50.392;7.482;2022-12-07T12:26:37;2.90;;;2.07;;
4980;SDS011;2507;50.392;7.482;2022-12-07T12:29:13;3.20;;;1.97;;
4980;SDS011;2507;50.392;7.482;2022-12-07T12:32:06;2.10;;;1.87;;
4980;SDS011;2507;50.392;7.482;2022-12-07T12:42:45;2.30;;;1.30;;
4980;SDS011;2507;50.392;7.482;2022-12-07T12:47:55;2.37;;;1.40;;
4980;SDS011;2507;50.392;7.482;2022-12-07T12:50:22;1.70;;;1.60;;
4980;SDS011;2507;50.392;7.482;2022-12-07T12:53:03;1.77;;;1.20;;
4980;SDS011;2507;50.392;7.482;2022-12-07T12:55:44;3.77;;;2.00;;
4980;SDS011;2507;50.392;7.482;2022-12-07T12:58:34;3.67;;;1.90;;
4980;SDS011;2507;50.392;7.482;2022-12-07T13:04:01;3.80;;;2.57;;
4980;SDS011;2507;50.392;7.482;2022-12-07T13:06:34;4.73;;;2.70;;
4980;SDS011;2507;50.392;7.482;2022-12-07T13:09:01;3.13;;;2.00;;
4980;SDS011;2507;50.392;7.482;2022-12-07T13:11:32;6.50;;;2.73;;
4980;SDS011;2507;50.392;7.482;2022-12-07T13:17:07;3.63;;;1.73;;
4980;SDS011;2507;50.392;7.482;2022-12-07T13:24:58;3.67;;;1.87;;
4980;SDS011;2507;50.392;7.482;2022-12-07T13:27:30;3.80;;;2.10;;
4980;SDS011;2507;50.392;7.482;2022-12-07T13:29:56;2.47;;;2.20;;
4980;SDS011;2507;50.392;7.482;2022-12-07T13:32:31;3.60;;;1.80;;
4980;SDS011;2507;50.392;7.482;2022-12-07T13:34:56;3.77;;;2.50;;
4980;SDS011;2507;50.392;7.482;2022-12-07T13:37:28;2.63;;;2.40;;
4980;SDS011;2507;50.392;7.482;2022-12-07T13:39:58;3.97;;;1.87;;
4980;SDS011;2507;50.392;7.482;2022-12-07T13:42:32;4.77;;;2.10;;
4980;SDS011;2507;50.392;7.482;2022-12-07T13:44:59;3.57;;;1.97;;
4980;SDS011;2507;50.392;7.482;2022-12-07T13:47:34;4.00;;;2.23;;
4980;SDS011;2507;50.392;7.482;2022-12-07T13:50:21;4.00;;;1.70;;
4980;SDS011;2507;50.392;7.482;2022-12-07T13:52:54;4.43;;;2.10;;
4980;SDS011;2507;50.392;7.482;2022-12-07T13:55:20;4.60;;;2.77;;
4980;SDS011;2507;50.392;7.482;2022-12-07T13:57:47;3.93;;;2.40;;
4980;SDS011;2507;50.392;7.482;2022-12-07T14:00:16;3.80;;;2.10;;
4980;SDS011;2507;50.392;7.482;2022-12-07T14:02:58;2.10;;;2.00;;
4980;SDS011;2507;50.392;7.482;2022-12-07T14:05:27;4.90;;;2.27;;
4980;SDS011;2507;50.392;7.482;2022-12-07T14:07:54;5.23;;;2.27;;
4980;SDS011;2507;50.392;7.482;2022-12-07T14:10:23;4.70;;;2.60;;
4980;SDS011;2507;50.392;7.482;2022-12-07T14:12:51;4.97;;;2.10;;
4980;SDS011;2507;50.392;7.482;2022-12-07T14:15:25;2.10;;;1.80;;
4980;SDS011;2507;50.392;7.482;2022-12-07T14:17:54;3.53;;;2.20;;
4980;SDS011;2507;50.392;7.482;2022-12-07T14:22:55;6.13;;;4.17;;
4980;SDS011;2507;50.392;7.482;2022-12-07T14:25:22;5.43;;;3.23;;
4980;SDS011;2507;50.392;7.482;2022-12-07T14:27:49;6.23;;;2.57;;
4980;SDS011;2507;50.392;7.482;2022-12-07T14:30:18;2.40;;;2.20;;
4980;SDS011;2507;50.392;7.482;2022-12-07T14:32:44;2.67;;;1.93;;
4980;SDS011;2507;50.392;7.482;2022-12-07T14:35:13;4.20;;;2.40;;
4980;SDS011;2507;50.392;7.482;2022-12-07T14:37:41;2.77;;;2.63;;
4980;SDS011;2507;50.392;7.482;2022-12-07T14:40:12;3.83;;;2.50;;
4980;SDS011;2507;50.392;7.482;2022-12-07T14:42:49;5.27;;;2.17;;
4980;SDS011;2507;50.392;7.482;2022-12-07T14:45:18;3.20;;;2.50;;
4980;SDS011;2507;50.392;7.482;2022-12-07T14:47:45;3.33;;;2.63;;
4980;SDS011;2507;50.392;7.482;2022-12-07T14:50:12;2.60;;;2.40;;
4980;SDS011;2507;50.392;7.482;2022-12-07T14:52:39;5.93;;;2.80;;
4980;SDS011;2507;50.392;7.482;2022-12-07T14:55:11;3.97;;;2.20;;
4980;SDS011;2507;50.392;7.482;2022-12-07T14:57:39;3.63;;;2.60;;
4980;SDS011;2507;50.392;7.482;2022-12-07T15:00:04;3.83;;;2.23;;
4980;SDS011;2507;50.392;7.482;2022-12-07T15:02:30;2.60;;;1.97;;
4980;SDS011;2507;50.392;7.482;2022-12-07T15:04:55;5.33;;;2.53;;
4980;SDS011;2507;50.392;7.482;2022-12-07T15:07:21;4.03;;;2.30;;
4980;SDS011;2507;50.392;7.482;2022-12-07T15:09:47;5.07;;;2.90;;
4980;SDS011;2507;50.392;7.482;2022-12-07T15:12:13;4.20;;;2.90;;
4980;SDS011;2507;50.392;7.482;2022-12-07T15:14:38;2.90;;;2.57;;
4980;SDS011;2507;50.392;7.482;2022-12-07T15:17:04;5.93;;;3.30;;
4980;SDS011;2507;50.392;7.482;2022-12-07T15:19:29;3.80;;;2.60;;
4980;SDS011;2507;50.392;7.482;2022-12-07T15:21:54;7.63;;;3.47;;
4980;SDS011;2507;50.392;7.482;2022-12-07T15:24:20;3.57;;;2.37;;
4980;SDS011;2507;50.392;7.482;2022-12-07T15:26:46;4.90;;;2.90;;
4980;SDS011;2507;50.392;7.482;2022-12-07T15:29:13;3.07;;;2.67;;
4980;SDS011;2507;50.392;7.482;2022-12-07T15:31:39;2.67;;;2.47;;
4980;SDS011;2507;50.392;7.482;2022-12-07T15:34:05;3.40;;;3.03;;
4980;SDS011;2507;50.392;7.482;2022-12-07T15:36:31;2.57;;;2.30;;
4980;SDS011;2507;50.392;7.482;2022-12-07T15:38:57;2.30;;;2.20;;
4980;SDS011;2507;50.392;7.482;2022-12-07T15:41:23;6.20;;;2.73;;
4980;SDS011;2507;50.392;7.482;2022-12-07T15:43:49;3.50;;;3.30;;
4980;SDS011;2507;50.392;7.482;2022-12-07T15:46:34;3.33;;;2.40;;
4980;SDS011;2507;50.392;7.482;2022-12-07T15:49:02;3.50;;;3.20;;
4980;SDS011;2507;50.392;7.482;2022-12-07T15:51:28;5.80;;;3.63;;
4980;SDS011;2507;50.392;7.482;2022-12-07T15:53:54;3.07;;;2.87;;
4980;SDS011;2507;50.392;7.482;2022-12-07T15:56:19;8.53;;;2.90;;
4980;SDS011;2507;50.392;7.482;2022-12-07T15:58:46;3.60;;;3.30;;
4980;SDS011;2507;50.392;7.482;2022-12-07T16:01:12;8.23;;;3.50;;
4980;SDS011;2507;50.392;7.482;2022-12-07T16:03:39;3.90;;;2.70;;
4980;SDS011;2507;50.392;7.482;2022-12-07T16:06:04;5.47;;;3.50;;
4980;SDS011;2507;50.392;7.482;2022-12-07T16:08:30;3.47;;;3.17;;
4980;SDS011;2507;50.392;7.482;2022-12-07T16:10:55;4.00;;;3.33;;
4980;SDS011;2507;50.392;7.482;2022-12-07T16:13:21;4.37;;;3.80;;
4980;SDS011;2507;50.392;7.482;2022-12-07T16:15:46;5.90;;;2.80;;
4980;SDS011;2507;50.392;7.482;2022-12-07T16:18:11;4.83;;;3.17;;
4980;SDS011;2507;50.392;7.482;2022-12-07T16:20:36;5.20;;;3.40;;
4980;SDS011;2507;50.392;7.482;2022-12-07T16:23:02;3.83;;;3.43;;
4980;SDS011;2507;50.392;7.482;2022-12-07T16:25:27;3.37;;;3.07;;
4980;SDS011;2507;50.392;7.482;2022-12-07T16:27:52;3.37;;;3.03;;
4980;SDS011;2507;50.392;7.482;2022-12-07T16:30:18;6.00;;;3.63;;
4980;SDS011;2507;50.392;7.482;2022-12-07T16:32:43;4.20;;;3.37;;
4980;SDS011;2507;50.392;7.482;2022-12-07T16:35:09;3.63;;;3.13;;
4980;SDS011;2507;50.392;7.482;2022-12-07T16:37:35;4.97;;;3.80;;
4980;SDS011;2507;50.392;7.482;2022-12-07T16:40:00;6.17;;;3.73;;
4980;SDS011;2507;50.392;7.482;2022-12-07T16:42:26;4.70;;;3.93;;
4980;SDS011;2507;50.392;7.482;2022-12-07T16:44:51;8.70;;;7.87;;
4980;SDS011;2507;50.392;7.482;2022-12-07T16:47:17;13.53;;;12.10;;
4980;SDS011;2507;50.392;7.482;2022-12-07T16:49:42;7.07;;;5.50;;
4980;SDS011;2507;50.392;7.482;2022-12-07T16:52:07;5.77;;;4.13;;